createdAt,value
2023-02-03T00:00:26.280Z,9.745663
2023-02-03T00:01:26.005Z,9.745891
2023-02-03T00:02:25.997Z,9.745787
2023-02-03T00:03:26.073Z,9.745884
2023-02-03T00:04:25.978Z,9.745844
2023-02-03T00:05:25.978Z,9.745584
2023-02-03T00:06:25.962Z,9.745692
2023-02-03T00:07:25.959Z,9.745672
2023-02-03T00:08:25.974Z,9.745859
2023-02-03T00:09:25.959Z,9.745859
2023-02-03T00:10:26.255Z,9.745667
2023-02-03T00:11:25.927Z,9.745759
2023-02-03T00:12:25.916Z,9.745831
2023-02-03T00:13:25.946Z,9.746168
2023-02-03T00:14:25.899Z,9.746044
2023-02-03T00:15:25.892Z,9.745793
2023-02-03T00:16:25.883Z,9.745648
2023-02-03T00:17:25.880Z,9.745568
2023-02-03T00:18:25.898Z,9.745532
2023-02-03T00:19:25.862Z,9.745610
2023-02-03T00:20:26.211Z,9.745719
2023-02-03T00:21:25.843Z,9.745759
2023-02-03T00:22:25.835Z,9.745573
2023-02-03T00:23:25.864Z,9.745961
2023-02-03T00:24:25.815Z,9.745773
2023-02-03T00:25:25.815Z,9.745747
2023-02-03T00:26:25.808Z,9.745526
2023-02-03T00:27:25.798Z,9.745728
2023-02-03T00:28:25.814Z,9.746136
2023-02-03T00:29:25.833Z,9.746542
2023-02-03T00:30:25.982Z,9.745868
2023-02-03T00:31:25.892Z,9.745918
2023-02-03T00:32:25.882Z,9.745596
2023-02-03T00:33:25.784Z,9.745548
2023-02-03T00:34:25.747Z,9.745614
2023-02-03T00:35:25.742Z,9.745793
2023-02-03T00:36:25.804Z,9.745605
2023-02-03T00:37:25.726Z,9.745443
2023-02-03T00:38:25.738Z,9.745646
2023-02-03T00:39:25.708Z,9.745850
2023-02-03T00:40:26.030Z,9.745817
2023-02-03T00:41:25.693Z,9.745830
2023-02-03T00:42:25.695Z,9.745549
2023-02-03T00:43:25.706Z,9.745763
2023-02-03T00:44:25.673Z,9.745397
2023-02-03T00:45:25.670Z,9.745534
2023-02-03T00:46:25.666Z,9.745591
2023-02-03T00:47:25.652Z,9.745528
2023-02-03T00:48:25.669Z,9.745655
2023-02-03T00:49:25.637Z,9.745562
2023-02-03T00:50:25.903Z,9.745709
2023-02-03T00:51:25.618Z,9.745592
2023-02-03T00:52:25.630Z,9.745462
2023-02-03T00:53:25.627Z,9.745363
2023-02-03T00:54:25.593Z,9.745366
2023-02-03T00:55:25.592Z,9.745525
2023-02-03T00:56:25.588Z,9.745342
2023-02-03T00:57:25.573Z,9.745558
2023-02-03T00:58:25.588Z,9.745356
2023-02-03T00:59:25.555Z,9.745539
2023-02-03T01:00:25.759Z,9.745320
2023-02-03T01:01:25.582Z,9.745275
2023-02-03T01:02:25.603Z,9.745388
2023-02-03T01:03:25.795Z,9.745313
2023-02-03T01:04:25.534Z,9.745681
2023-02-03T01:05:25.510Z,9.745225
2023-02-03T01:06:25.505Z,9.745257
2023-02-03T01:07:25.497Z,9.745406
2023-02-03T01:08:25.509Z,9.745323
2023-02-03T01:09:25.487Z,9.745543
2023-02-03T01:10:25.786Z,9.745502
2023-02-03T01:11:25.471Z,9.745539
2023-02-03T01:12:25.460Z,9.745315
2023-02-03T01:13:25.474Z,9.745418
2023-02-03T01:14:25.453Z,9.745248
2023-02-03T01:15:25.439Z,9.745420
2023-02-03T01:16:27.647Z,9.745247
2023-02-03T01:17:25.418Z,9.745305
2023-02-03T01:18:25.444Z,9.745348
2023-02-03T01:19:25.406Z,9.745433
2023-02-03T01:20:25.950Z,9.745105
2023-02-03T01:21:25.390Z,9.745255
2023-02-03T01:22:25.385Z,9.745112
2023-02-03T01:23:25.389Z,9.745212
2023-02-03T01:24:25.393Z,9.745199
2023-02-03T01:25:25.433Z,9.745370
2023-02-03T01:26:25.354Z,9.745338
2023-02-03T01:27:25.343Z,9.745455
2023-02-03T01:28:25.336Z,9.745499
2023-02-03T01:29:25.357Z,9.745750
2023-02-03T01:30:25.720Z,9.745628
2023-02-03T01:31:25.411Z,9.745886
2023-02-03T01:32:25.309Z,9.746526
2023-02-03T01:33:25.289Z,9.746329
2023-02-03T01:34:25.321Z,9.746081
2023-02-03T01:35:25.283Z,9.745835
2023-02-03T01:36:25.271Z,9.745708
2023-02-03T01:37:25.259Z,9.745895
2023-02-03T01:38:25.259Z,9.745597
2023-02-03T01:39:25.270Z,9.745567
2023-02-03T01:40:25.796Z,9.745831
2023-02-03T01:41:25.235Z,9.746485
2023-02-03T01:42:25.249Z,9.745895
2023-02-03T01:43:25.222Z,9.745797
2023-02-03T01:44:25.236Z,9.745960
2023-02-03T01:45:25.201Z,9.746204
2023-02-03T01:46:25.249Z,9.746401
2023-02-03T01:47:25.188Z,9.745745
2023-02-03T01:48:25.180Z,9.745468
2023-02-03T01:49:25.200Z,9.745491
2023-02-03T01:50:25.444Z,9.745443
2023-02-03T01:51:25.157Z,9.745104
2023-02-03T01:52:25.162Z,9.745091
2023-02-03T01:53:25.136Z,9.745496
2023-02-03T01:54:25.188Z,9.745613
2023-02-03T01:55:25.124Z,9.745288
2023-02-03T01:56:25.117Z,9.745441
2023-02-03T01:57:25.118Z,9.744888
2023-02-03T01:58:25.107Z,9.745343
2023-02-03T01:59:25.127Z,9.745296
2023-02-03T02:00:25.431Z,9.745539
2023-02-03T02:01:25.141Z,9.745456
2023-02-03T02:02:25.101Z,9.745523
2023-02-03T02:03:25.063Z,9.745303
2023-02-03T02:04:25.082Z,9.745274
2023-02-03T02:05:25.049Z,9.745210
2023-02-03T02:06:25.041Z,9.745021
2023-02-03T02:07:25.035Z,9.745105
2023-02-03T02:08:25.022Z,9.745361
2023-02-03T02:09:25.040Z,9.745414
2023-02-03T02:10:25.328Z,9.745359
2023-02-03T02:11:25.001Z,9.745340
2023-02-03T02:12:25.000Z,9.745327
2023-02-03T02:13:24.995Z,9.745445
2023-02-03T02:14:25.011Z,9.745464
2023-02-03T02:15:24.979Z,9.745407
2023-02-03T02:16:24.962Z,9.745422
2023-02-03T02:17:24.961Z,9.745191
2023-02-03T02:18:24.969Z,9.745368
2023-02-03T02:19:24.966Z,9.745380
2023-02-03T02:20:25.242Z,9.745405
2023-02-03T02:21:24.932Z,9.745292
2023-02-03T02:22:24.928Z,9.745196
2023-02-03T02:23:24.917Z,9.745443
2023-02-03T02:24:24.932Z,9.745438
2023-02-03T02:25:24.908Z,9.745274
2023-02-03T02:26:24.885Z,9.745373
2023-02-03T02:27:24.872Z,9.745382
2023-02-03T02:28:24.878Z,9.745469
2023-02-03T02:29:25.014Z,9.745350
2023-02-03T02:30:25.233Z,9.745479
2023-02-03T02:31:24.915Z,9.745398
2023-02-03T02:32:24.852Z,9.745603
2023-02-03T02:33:24.834Z,9.745520
2023-02-03T02:34:24.870Z,9.745528
2023-02-03T02:35:24.826Z,9.745391
2023-02-03T02:36:24.827Z,9.745461
2023-02-03T02:37:24.801Z,9.745466
2023-02-03T02:38:24.793Z,9.745525
2023-02-03T02:39:24.782Z,9.745516
2023-02-03T02:40:25.507Z,9.745454
2023-02-03T02:41:24.769Z,9.745493
2023-02-03T02:42:24.770Z,9.745418
2023-02-03T02:43:24.763Z,9.745405
2023-02-03T02:44:24.753Z,9.745450
2023-02-03T02:45:24.767Z,9.745550
2023-02-03T02:46:24.768Z,9.745538
2023-02-03T02:47:24.756Z,9.744945
2023-02-03T02:48:24.782Z,9.745452
2023-02-03T02:49:24.750Z,9.745736
2023-02-03T02:50:25.310Z,9.745598
2023-02-03T02:51:24.698Z,9.745321
2023-02-03T02:52:24.699Z,9.744652
2023-02-03T02:53:24.682Z,9.744959
2023-02-03T02:54:24.676Z,9.744527
2023-02-03T02:55:24.805Z,9.744927
2023-02-03T02:56:24.657Z,9.744879
2023-02-03T02:57:24.653Z,9.744881
2023-02-03T02:58:24.647Z,9.744489
2023-02-03T02:59:24.668Z,9.745058
2023-02-03T03:00:26.079Z,9.745214
2023-02-03T03:01:24.634Z,9.745822
2023-02-03T03:02:24.615Z,9.746140
2023-02-03T03:03:24.636Z,9.745246
2023-02-03T03:04:24.628Z,9.745411
2023-02-03T03:05:24.627Z,9.745048
2023-02-03T03:06:24.588Z,9.744959
2023-02-03T03:07:24.582Z,9.745103
2023-02-03T03:08:24.572Z,9.745174
2023-02-03T03:09:24.562Z,9.745407
2023-02-03T03:10:25.019Z,9.745083
2023-02-03T03:11:24.543Z,9.745150
2023-02-03T03:12:24.546Z,9.745248
2023-02-03T03:13:24.527Z,9.745120
2023-02-03T03:14:24.521Z,9.744988
2023-02-03T03:15:24.538Z,9.745363
2023-02-03T03:16:24.605Z,9.745365
2023-02-03T03:17:24.502Z,9.745356
2023-02-03T03:18:24.481Z,9.745534
2023-02-03T03:19:25.481Z,9.745347
2023-02-03T03:20:24.779Z,9.745347
2023-02-03T03:21:24.472Z,9.745055
2023-02-03T03:22:24.463Z,9.745186
2023-02-03T03:23:24.455Z,9.745486
2023-02-03T03:24:24.444Z,9.745742
2023-02-03T03:25:24.457Z,9.745415
2023-02-03T03:26:24.426Z,9.745428
2023-02-03T03:27:24.419Z,9.745613
2023-02-03T03:28:24.415Z,9.745625
2023-02-03T03:29:24.413Z,9.745329
2023-02-03T03:30:24.556Z,9.745092
2023-02-03T03:31:24.500Z,9.745696
2023-02-03T03:32:24.384Z,9.746006
2023-02-03T03:33:24.384Z,9.746026
2023-02-03T03:34:24.369Z,9.745776
2023-02-03T03:35:24.359Z,9.745655
2023-02-03T03:36:24.385Z,9.745679
2023-02-03T03:37:24.356Z,9.745616
2023-02-03T03:38:24.344Z,9.745624
2023-02-03T03:39:24.333Z,9.745903
2023-02-03T03:40:24.649Z,9.745569
2023-02-03T03:41:24.344Z,9.745462
2023-02-03T03:42:24.308Z,9.745537
2023-02-03T03:43:24.307Z,9.745730
2023-02-03T03:44:24.297Z,9.745352
2023-02-03T03:45:24.281Z,9.745373
2023-02-03T03:46:24.328Z,9.745530
2023-02-03T03:47:24.269Z,9.745691
2023-02-03T03:48:24.264Z,9.745553
2023-02-03T03:49:24.255Z,9.745573
2023-02-03T03:50:24.325Z,9.745314
2023-02-03T03:51:24.263Z,9.745236
2023-02-03T03:52:24.245Z,9.745332
2023-02-03T03:53:24.226Z,9.745316
2023-02-03T03:54:24.214Z,9.745399
2023-02-03T03:55:24.208Z,9.745296
2023-02-03T03:56:24.230Z,9.745430
2023-02-03T03:57:24.205Z,9.744770
2023-02-03T03:58:24.188Z,9.745188
2023-02-03T03:59:24.177Z,9.745008
2023-02-03T04:00:24.205Z,9.745000
2023-02-03T04:01:24.320Z,9.745357
2023-02-03T04:02:24.235Z,9.745333
2023-02-03T04:03:24.182Z,9.745140
2023-02-03T04:04:24.139Z,9.745343
2023-02-03T04:05:24.131Z,9.745187
2023-02-03T04:06:24.149Z,9.745361
2023-02-03T04:07:24.117Z,9.745362
2023-02-03T04:08:24.101Z,9.745483
2023-02-03T04:09:25.101Z,9.745463
2023-02-03T04:10:24.238Z,9.745370
2023-02-03T04:11:24.111Z,9.745497
2023-02-03T04:12:24.091Z,9.745531
2023-02-03T04:13:24.071Z,9.745510
2023-02-03T04:14:24.069Z,9.745582
2023-02-03T04:15:24.060Z,9.745524
2023-02-03T04:16:24.119Z,9.745421
2023-02-03T04:17:24.037Z,9.745512
2023-02-03T04:18:24.037Z,9.745522
2023-02-03T04:19:24.038Z,9.745446
2023-02-03T04:20:24.023Z,9.745444
2023-02-03T04:21:24.045Z,9.745614
2023-02-03T04:22:24.006Z,9.745508
2023-02-03T04:23:24.004Z,9.745533
2023-02-03T04:24:23.985Z,9.745645
2023-02-03T04:25:23.987Z,9.745539
2023-02-03T04:26:23.997Z,9.745481
2023-02-03T04:27:23.966Z,9.745481
2023-02-03T04:28:23.952Z,9.745581
2023-02-03T04:29:23.942Z,9.745537
2023-02-03T04:30:23.952Z,9.745504
2023-02-03T04:31:24.026Z,9.745537
2023-02-03T04:32:23.946Z,9.745582
2023-02-03T04:33:23.915Z,9.745503
2023-02-03T04:34:23.901Z,9.745424
2023-02-03T04:35:23.902Z,9.745460
2023-02-03T04:36:23.892Z,9.745475
2023-02-03T04:37:23.909Z,9.745634
2023-02-03T04:38:23.878Z,9.745622
2023-02-03T04:39:23.870Z,9.745560
2023-02-03T04:40:23.859Z,9.745500
2023-02-03T04:41:23.848Z,9.745481
2023-02-03T04:42:23.873Z,9.745361
2023-02-03T04:43:23.845Z,9.745459
2023-02-03T04:44:23.827Z,9.745356
2023-02-03T04:45:23.937Z,9.745507
2023-02-03T04:46:23.821Z,9.745472
2023-02-03T04:47:23.837Z,9.745478
2023-02-03T04:48:23.791Z,9.745497
2023-02-03T04:49:23.794Z,9.745472
2023-02-03T04:50:23.794Z,9.745410
2023-02-03T04:51:23.777Z,9.745353
2023-02-03T04:52:23.788Z,9.745589
2023-02-03T04:53:23.762Z,9.745449
2023-02-03T04:54:23.748Z,9.745500
2023-02-03T04:55:23.747Z,9.745425
2023-02-03T04:56:23.758Z,9.745395
2023-02-03T04:57:23.761Z,9.745443
2023-02-03T04:58:23.721Z,9.745513
2023-02-03T04:59:23.711Z,9.745486
2023-02-03T05:00:23.707Z,9.745393
2023-02-03T05:01:23.748Z,9.745467
2023-02-03T05:02:23.718Z,9.745354
2023-02-03T05:03:26.144Z,9.745517
2023-02-03T05:04:24.680Z,9.745490
2023-02-03T05:05:23.668Z,9.745412
2023-02-03T05:06:23.659Z,9.745391
2023-02-03T05:07:23.682Z,9.745378
2023-02-03T05:08:23.648Z,9.745391
2023-02-03T05:09:23.645Z,9.745439
2023-02-03T05:10:23.632Z,9.745253
2023-02-03T05:11:23.626Z,9.745378
2023-02-03T05:12:23.648Z,9.745302
2023-02-03T05:13:23.616Z,9.745338
2023-02-03T05:14:23.601Z,9.745362
2023-02-03T05:15:23.600Z,9.745262
2023-02-03T05:16:23.636Z,9.745196
2023-02-03T05:17:23.604Z,9.745212
2023-02-03T05:18:23.573Z,9.745325
2023-02-03T05:19:23.583Z,9.745369
2023-02-03T05:20:23.558Z,9.745235
2023-02-03T05:21:23.551Z,9.745481
2023-02-03T05:22:23.571Z,9.745392
2023-02-03T05:23:23.547Z,9.745189
2023-02-03T05:24:23.528Z,9.745354
2023-02-03T05:25:23.520Z,9.745393
2023-02-03T05:26:23.515Z,9.745280
2023-02-03T05:27:23.533Z,9.745386
2023-02-03T05:28:23.500Z,9.745436
2023-02-03T05:29:23.494Z,9.745165
2023-02-03T05:30:23.486Z,9.745131
2023-02-03T05:31:23.602Z,9.745229
2023-02-03T05:32:23.491Z,9.745218
2023-02-03T05:33:23.473Z,9.745465
2023-02-03T05:34:23.451Z,9.745381
2023-02-03T05:35:23.441Z,9.745281
2023-02-03T05:36:23.435Z,9.745082
2023-02-03T05:37:23.443Z,9.745267
2023-02-03T05:38:23.417Z,9.745238
2023-02-03T05:39:23.397Z,9.744078
2023-02-03T05:40:23.404Z,9.745383
2023-02-03T05:41:23.411Z,9.745346
2023-02-03T05:42:23.404Z,9.745246
2023-02-03T05:43:23.376Z,9.746922
2023-02-03T05:44:23.365Z,9.745258
2023-02-03T05:45:23.349Z,9.745383
2023-02-03T05:46:23.345Z,9.745218
2023-02-03T05:47:23.365Z,9.745285
2023-02-03T05:48:23.331Z,9.745383
2023-02-03T05:49:23.423Z,9.745560
2023-02-03T05:50:23.329Z,9.745358
2023-02-03T05:51:23.310Z,9.745479
2023-02-03T05:52:23.325Z,9.745790
2023-02-03T05:53:23.291Z,9.745408
2023-02-03T05:54:23.282Z,9.745315
2023-02-03T05:55:23.281Z,9.745636
2023-02-03T05:56:23.290Z,9.745412
2023-02-03T05:57:23.286Z,9.745575
2023-02-03T05:58:23.248Z,9.745295
2023-02-03T05:59:24.247Z,9.744697
2023-02-03T06:00:23.240Z,9.746197
2023-02-03T06:01:23.230Z,9.745662
2023-02-03T06:02:23.248Z,9.745399
2023-02-03T06:03:23.263Z,9.745564
2023-02-03T06:04:23.242Z,9.745670
2023-02-03T06:05:23.210Z,9.745991
2023-02-03T06:06:24.194Z,9.745758
2023-02-03T06:07:23.209Z,9.746104
2023-02-03T06:08:23.196Z,9.745528
2023-02-03T06:09:23.177Z,9.745450
2023-02-03T06:10:23.158Z,9.745382
2023-02-03T06:11:23.155Z,9.745455
2023-02-03T06:12:23.185Z,9.745455
2023-02-03T06:13:24.134Z,9.745455
2023-02-03T06:14:23.128Z,9.745576
2023-02-03T06:15:23.148Z,9.745576
2023-02-03T06:16:23.174Z,9.745743
2023-02-03T06:17:23.143Z,9.745633
2023-02-03T06:18:23.136Z,9.745633
2023-02-03T06:19:23.086Z,9.746058
2023-02-03T06:20:23.077Z,9.746655
2023-02-03T06:21:23.079Z,9.746087
2023-02-03T06:22:23.057Z,9.745684
2023-02-03T06:23:23.085Z,9.745893
2023-02-03T06:24:23.047Z,9.745934
2023-02-03T06:25:23.038Z,9.745410
2023-02-03T06:26:23.032Z,9.745875
2023-02-03T06:27:23.018Z,9.745204
2023-02-03T06:28:23.038Z,9.746033
2023-02-03T06:29:23.005Z,9.746040
2023-02-03T06:30:22.996Z,9.745950
2023-02-03T06:31:23.165Z,9.745588
2023-02-03T06:32:22.987Z,9.745742
2023-02-03T06:33:22.997Z,9.745860
2023-02-03T06:34:22.966Z,9.744873
2023-02-03T06:35:22.969Z,9.745524
2023-02-03T06:36:22.954Z,9.745803
2023-02-03T06:37:24.770Z,9.745919
2023-02-03T06:38:23.971Z,9.745568
2023-02-03T06:39:22.937Z,9.745728
2023-02-03T06:40:22.916Z,9.745776
2023-02-03T06:41:22.924Z,9.745782
2023-02-03T06:42:22.909Z,9.745719
2023-02-03T06:43:22.935Z,9.745650
2023-02-03T06:44:22.882Z,9.745834
2023-02-03T06:45:22.877Z,9.745562
2023-02-03T06:46:22.925Z,9.745399
2023-02-03T06:47:22.877Z,9.745765
2023-02-03T06:48:22.885Z,9.745512
2023-02-03T06:49:22.858Z,9.745477
2023-02-03T06:50:22.842Z,9.745426
2023-02-03T06:51:22.834Z,9.745507
2023-02-03T06:52:22.831Z,9.745511
2023-02-03T06:53:22.856Z,9.745558
2023-02-03T06:54:22.813Z,9.745523
2023-02-03T06:55:22.834Z,9.745782
2023-02-03T06:56:22.792Z,9.745540
2023-02-03T06:57:22.794Z,9.745469
2023-02-03T06:58:22.811Z,9.745441
2023-02-03T06:59:22.782Z,9.745584
2023-02-03T07:00:22.772Z,9.745457
2023-02-03T07:01:22.805Z,9.745373
2023-02-03T07:02:22.760Z,9.745504
2023-02-03T07:03:22.774Z,9.745476
2023-02-03T07:04:22.748Z,9.745392
2023-02-03T07:05:22.745Z,9.745440
2023-02-03T07:06:22.723Z,9.745533
2023-02-03T07:07:22.721Z,9.745590
2023-02-03T07:08:22.741Z,9.745515
2023-02-03T07:09:22.703Z,9.745672
2023-02-03T07:10:22.690Z,9.745637
2023-02-03T07:11:22.684Z,9.745734
2023-02-03T07:12:22.673Z,9.745674
2023-02-03T07:13:22.691Z,9.745673
2023-02-03T07:14:22.659Z,9.745758
2023-02-03T07:15:22.657Z,9.745638
2023-02-03T07:16:22.730Z,9.745851
2023-02-03T07:17:22.643Z,9.745607
2023-02-03T07:18:45.924Z,9.745676
2023-02-03T07:19:24.618Z,9.745363
2023-02-03T07:20:22.639Z,9.745394
2023-02-03T07:21:22.612Z,9.745562
2023-02-03T07:22:22.609Z,9.745519
2023-02-03T07:23:22.620Z,9.745280
2023-02-03T07:24:22.592Z,9.745495
2023-02-03T07:25:22.580Z,9.745415
2023-02-03T07:26:22.566Z,9.745314
2023-02-03T07:27:22.563Z,9.745552
2023-02-03T07:28:22.588Z,9.745633
2023-02-03T07:29:22.545Z,9.745420
2023-02-03T07:30:22.568Z,9.745214
2023-02-03T07:31:22.638Z,9.745527
2023-02-03T07:32:22.529Z,9.745770
2023-02-03T07:33:22.543Z,9.745527
2023-02-03T07:34:22.547Z,9.745467
2023-02-03T07:35:22.507Z,9.745394
2023-02-03T07:36:22.494Z,9.745562
2023-02-03T07:37:22.484Z,9.745498
2023-02-03T07:38:22.475Z,9.745597
2023-02-03T07:39:22.507Z,9.745524
2023-02-03T07:40:22.496Z,9.745425
2023-02-03T07:41:22.452Z,9.745487
2023-02-03T07:42:22.444Z,9.745699
2023-02-03T07:43:22.438Z,9.745738
2023-02-03T07:44:22.462Z,9.745459
2023-02-03T07:45:22.434Z,9.745396
2023-02-03T07:46:22.421Z,9.745334
2023-02-03T07:47:22.404Z,9.745396
2023-02-03T07:48:22.398Z,9.745422
2023-02-03T07:49:22.423Z,9.745388
2023-02-03T07:50:22.380Z,9.745358
2023-02-03T07:51:22.372Z,9.745476
2023-02-03T07:52:22.377Z,9.745442
2023-02-03T07:53:22.353Z,9.745534
2023-02-03T07:54:22.373Z,9.745660
2023-02-03T07:55:22.347Z,9.745652
2023-02-03T07:56:22.345Z,9.745675
2023-02-03T07:57:22.324Z,9.745537
2023-02-03T07:58:22.315Z,9.745597
2023-02-03T07:59:22.332Z,9.745627
2023-02-03T08:00:22.302Z,9.745572
2023-02-03T08:01:22.342Z,9.745312
2023-02-03T08:02:22.305Z,9.745524
2023-02-03T08:03:22.300Z,9.745607
2023-02-03T08:04:22.302Z,9.745706
2023-02-03T08:05:22.270Z,9.745384
2023-02-03T08:06:22.256Z,9.745410
2023-02-03T08:07:22.251Z,9.745789
2023-02-03T08:08:22.249Z,9.745720
2023-02-03T08:09:22.263Z,9.745637
2023-02-03T08:10:22.236Z,9.745552
2023-02-03T08:11:22.220Z,9.745495
2023-02-03T08:12:22.219Z,9.745816
2023-02-03T08:13:22.202Z,9.745618
2023-02-03T08:14:22.241Z,9.745442
2023-02-03T08:15:22.215Z,9.745457
2023-02-03T08:16:22.208Z,9.745538
2023-02-03T08:17:22.189Z,9.745404
2023-02-03T08:18:22.165Z,9.745379
2023-02-03T08:19:22.153Z,9.745515
2023-02-03T08:20:22.183Z,9.745479
2023-02-03T08:21:22.143Z,9.745476
2023-02-03T08:22:22.138Z,9.745323
2023-02-03T08:23:22.122Z,9.745469
2023-02-03T08:24:22.122Z,9.745779
2023-02-03T08:25:22.803Z,9.745664
2023-02-03T08:26:23.111Z,9.745593
2023-02-03T08:27:22.091Z,9.745524
2023-02-03T08:28:22.085Z,9.745523
2023-02-03T08:29:22.077Z,9.745532
2023-02-03T08:30:22.093Z,9.745597
2023-02-03T08:31:22.116Z,9.745589
2023-02-03T08:32:22.132Z,9.745499
2023-02-03T08:33:22.055Z,9.745508
2023-02-03T08:34:22.039Z,9.745625
2023-02-03T08:35:22.067Z,9.745706
2023-02-03T08:36:22.024Z,9.745395
2023-02-03T08:37:22.018Z,9.745401
2023-02-03T08:38:22.024Z,9.745234
2023-02-03T08:39:22.020Z,9.745275
2023-02-03T08:40:22.032Z,9.745318
2023-02-03T08:41:21.994Z,9.745405
2023-02-03T08:42:21.979Z,9.745479
2023-02-03T08:43:21.968Z,9.745401
2023-02-03T08:44:21.971Z,9.745424
2023-02-03T08:45:22.011Z,9.745531
2023-02-03T08:46:21.944Z,9.745556
2023-02-03T08:47:21.956Z,9.745540
2023-02-03T08:48:21.940Z,9.745633
2023-02-03T08:49:21.927Z,9.745455
2023-02-03T08:50:21.952Z,9.745456
2023-02-03T08:51:21.917Z,9.745409
2023-02-03T08:52:21.909Z,9.745410
2023-02-03T08:53:21.928Z,9.745566
2023-02-03T08:54:21.891Z,9.745520
2023-02-03T08:55:21.930Z,9.745502
2023-02-03T08:56:21.877Z,9.745568
2023-02-03T08:57:21.873Z,9.745389
2023-02-03T08:58:21.868Z,9.745520
2023-02-03T08:59:21.859Z,9.745403
2023-02-03T09:00:21.877Z,9.745329
2023-02-03T09:01:21.875Z,9.745507
2023-02-03T09:02:21.835Z,9.745612
2023-02-03T09:03:21.814Z,9.745521
2023-02-03T09:04:21.835Z,9.745399
2023-02-03T09:05:21.845Z,9.745431
2023-02-03T09:06:23.462Z,9.745449
2023-02-03T09:07:22.783Z,9.745116
2023-02-03T09:08:21.780Z,9.744826
2023-02-03T09:09:21.774Z,9.744780
2023-02-03T09:10:21.803Z,9.745168
2023-02-03T09:11:21.752Z,9.745346
2023-02-03T09:12:21.752Z,9.745358
2023-02-03T09:13:21.736Z,9.745543
2023-02-03T09:14:21.728Z,9.745312
2023-02-03T09:15:21.758Z,9.745473
2023-02-03T09:16:21.780Z,9.745238
2023-02-03T09:17:21.719Z,9.745539
2023-02-03T09:18:21.700Z,9.746248
2023-02-03T09:19:21.713Z,9.745278
2023-02-03T09:20:21.774Z,9.745379
2023-02-03T09:21:34.983Z,9.745501
2023-02-03T09:22:23.670Z,9.745962
2023-02-03T09:23:21.651Z,9.745185
2023-02-03T09:24:21.642Z,9.745185
2023-02-03T09:25:21.677Z,9.744946
2023-02-03T09:26:21.625Z,9.744930
2023-02-03T09:27:21.651Z,9.744446
2023-02-03T09:28:21.637Z,9.744435
2023-02-03T09:29:21.609Z,9.745423
2023-02-03T09:30:21.626Z,9.745042
2023-02-03T09:31:21.617Z,9.745035
2023-02-03T09:32:21.590Z,9.744800
2023-02-03T09:33:21.580Z,9.745623
2023-02-03T09:34:21.576Z,9.745436
2023-02-03T09:35:21.600Z,9.745325
2023-02-03T09:36:21.559Z,9.745517
2023-02-03T09:37:21.575Z,9.745514
2023-02-03T09:38:21.547Z,9.745345
2023-02-03T09:39:21.526Z,9.745421
2023-02-03T09:40:21.547Z,9.745625
2023-02-03T09:41:21.515Z,9.745712
2023-02-03T09:42:21.514Z,9.745663
2023-02-03T09:43:21.511Z,9.745758
2023-02-03T09:44:21.491Z,9.745671
2023-02-03T09:45:21.507Z,9.745643
2023-02-03T09:46:22.511Z,9.745697
2023-02-03T09:47:21.494Z,9.745670
2023-02-03T09:48:21.464Z,9.745515
2023-02-03T09:49:21.454Z,9.745152
2023-02-03T09:50:21.473Z,9.745771
2023-02-03T09:51:21.465Z,9.745788
2023-02-03T09:52:21.431Z,9.745925
2023-02-03T09:53:21.427Z,9.745672
2023-02-03T09:54:21.416Z,9.745721
2023-02-03T09:55:21.412Z,9.745612
2023-02-03T09:56:21.424Z,9.745526
2023-02-03T09:57:21.397Z,9.745310
2023-02-03T09:58:21.444Z,9.745529
2023-02-03T09:59:21.377Z,9.745496
2023-02-03T10:00:21.365Z,9.745279
2023-02-03T10:01:21.457Z,9.745170
2023-02-03T10:02:21.413Z,9.745293
2023-02-03T10:03:21.349Z,9.745412
2023-02-03T10:04:21.380Z,9.745353
2023-02-03T10:05:21.330Z,9.745429
2023-02-03T10:06:21.373Z,9.745107
2023-02-03T10:07:21.319Z,9.745049
2023-02-03T10:08:21.308Z,9.744922
2023-02-03T10:09:21.317Z,9.745142
2023-02-03T10:10:21.298Z,9.745284
2023-02-03T10:11:21.312Z,9.745163
2023-02-03T10:12:21.279Z,9.745267
2023-02-03T10:13:21.269Z,9.745333
2023-02-03T10:14:21.258Z,9.745420
2023-02-03T10:15:21.252Z,9.745425
2023-02-03T10:16:21.271Z,9.745545
2023-02-03T10:17:21.237Z,9.745391
2023-02-03T10:18:21.234Z,9.745442
2023-02-03T10:19:21.219Z,9.745608
2023-02-03T10:20:21.214Z,9.745391
2023-02-03T10:21:21.229Z,9.745340
2023-02-03T10:22:21.193Z,9.745389
2023-02-03T10:23:21.193Z,9.745294
2023-02-03T10:24:21.180Z,9.745365
2023-02-03T10:25:21.172Z,9.745551
2023-02-03T10:26:21.191Z,9.745273
2023-02-03T10:27:21.152Z,9.745362
2023-02-03T10:28:21.174Z,9.745519
2023-02-03T10:29:21.143Z,9.745373
2023-02-03T10:30:21.131Z,9.745485
2023-02-03T10:31:21.302Z,9.745550
2023-02-03T10:32:21.124Z,9.745475
2023-02-03T10:33:21.111Z,9.745481
2023-02-03T10:34:21.128Z,9.745529
2023-02-03T10:35:21.102Z,9.745449
2023-02-03T10:36:21.110Z,9.745522
2023-02-03T10:37:21.093Z,9.745424
2023-02-03T10:38:21.068Z,9.745456
2023-02-03T10:39:21.061Z,9.745546
2023-02-03T10:40:21.164Z,9.745500
2023-02-03T10:41:21.147Z,9.745363
2023-02-03T10:42:21.158Z,9.745445
2023-02-03T10:43:21.037Z,9.745451
2023-02-03T10:44:21.028Z,9.745565
2023-02-03T10:45:21.017Z,9.745403
2023-02-03T10:46:21.139Z,9.745463
2023-02-03T10:47:20.999Z,9.745602
2023-02-03T10:48:20.994Z,9.745427
2023-02-03T10:49:20.984Z,9.745637
2023-02-03T10:50:21.014Z,9.745578
2023-02-03T10:51:20.997Z,9.745693
2023-02-03T10:52:20.972Z,9.745601
2023-02-03T10:53:20.952Z,9.745636
2023-02-03T10:54:20.944Z,9.745709
2023-02-03T10:55:20.942Z,9.745658
2023-02-03T10:56:20.925Z,9.745675
2023-02-03T10:57:20.939Z,9.745541
2023-02-03T10:58:20.910Z,9.745403
2023-02-03T10:59:20.900Z,9.745623
2023-02-03T11:00:22.456Z,9.745616
2023-02-03T11:01:21.913Z,9.745496
2023-02-03T11:02:20.936Z,9.745402
2023-02-03T11:03:20.881Z,9.745562
2023-02-03T11:04:20.863Z,9.745697
2023-02-03T11:05:20.860Z,9.745630
2023-02-03T11:06:20.848Z,9.745746
2023-02-03T11:07:20.861Z,9.745595
2023-02-03T11:08:20.826Z,9.745430
2023-02-03T11:09:20.823Z,9.745562
2023-02-03T11:10:20.814Z,9.745460
2023-02-03T11:11:20.894Z,9.745581
2023-02-03T11:12:20.849Z,9.745712
2023-02-03T11:13:20.787Z,9.745961
2023-02-03T11:14:20.782Z,9.746053
2023-02-03T11:15:20.774Z,9.745914
2023-02-03T11:16:20.928Z,9.745914
2023-02-03T11:17:20.785Z,9.745914
2023-02-03T11:18:20.758Z,9.746769
2023-02-03T11:19:20.769Z,9.746803
2023-02-03T11:20:20.738Z,9.746803
2023-02-03T11:21:20.732Z,9.746803
2023-02-03T11:22:20.743Z,9.746464
2023-02-03T11:23:22.717Z,9.746464
2023-02-03T11:24:20.709Z,9.746464
2023-02-03T11:25:20.690Z,9.746464
2023-02-03T11:26:20.686Z,9.746464
2023-02-03T11:27:20.707Z,9.746464
2023-02-03T11:28:20.702Z,9.745775
2023-02-03T11:29:23.448Z,9.745154
2023-02-03T11:30:20.659Z,9.744880
2023-02-03T11:31:20.704Z,9.744311
2023-02-03T11:32:20.670Z,9.744824
2023-02-03T11:33:20.628Z,9.745082
2023-02-03T11:34:20.625Z,9.745147
2023-02-03T11:35:22.841Z,9.745353
2023-02-03T11:36:20.614Z,9.745423
2023-02-03T11:37:21.642Z,9.745423
2023-02-03T11:38:20.596Z,9.745423
2023-02-03T11:39:20.602Z,9.745423
2023-02-03T11:40:20.584Z,9.745307
2023-02-03T11:41:23.028Z,9.744826
2023-02-03T11:42:20.595Z,9.744826
2023-02-03T11:43:20.577Z,9.744826
2023-02-03T11:44:20.551Z,9.744826